FNMA

Malanje

Malanje, Angola
METAR FNMA 220600Z 00000KT 0200 FG VV/// 16/16 Q1018
Observed Flight Rules
May-22 @ 06:00 UTC (4 hours ago) Instrument Flight Rules
Visibility Clouds Conditions
193 meters
  • Vertical visibility
  • Fog
Temperatures Readings
Current 16°C / 61°F
Dewpoint 16°C / 61°F
Humidity 100%
Altimeter 30.06" Hg
Pressure 1018 hPa
Elevation 1173
METAR FNMA 220600Z 00000KT 0200 FG VV/// 16/16 Q1018
Observed Flight Rules
May-22 @ 06:00 UTC
(4 hours ago)
LIFR
Clouds
  • Vertical visibility
Conditions
  • Fog
Temperature Dewpoint
16°C / 61°F 16°C / 61°F
Humidity Altimeter Pressure
100% 30.06" Hg 1018 hPa